createdAt,value
2022-09-30T03:46:43.843Z,99.90
2022-09-30T03:49:20.204Z,99.90
2022-09-30T03:51:50.768Z,99.90
2022-09-30T03:54:18.067Z,99.90
2022-09-30T03:56:44.843Z,99.90
2022-09-30T03:59:31.848Z,99.90
2022-09-30T04:01:58.656Z,99.90
2022-09-30T04:04:25.433Z,99.90
2022-09-30T04:06:52.213Z,99.90
2022-09-30T04:09:19.019Z,99.90
2022-09-30T04:11:45.803Z,99.90
2022-09-30T04:14:12.604Z,99.90
2022-09-30T04:16:39.385Z,99.90
2022-09-30T04:19:06.254Z,99.90
2022-09-30T04:21:32.986Z,99.90
2022-09-30T04:23:59.700Z,99.90
2022-09-30T04:26:26.540Z,99.90
2022-09-30T04:28:53.307Z,99.90
2022-09-30T04:31:21.285Z,99.90
2022-09-30T04:33:48.218Z,99.90
2022-09-30T04:36:15.096Z,99.90
2022-09-30T04:38:41.883Z,99.90
2022-09-30T04:41:17.297Z,99.90
2022-09-30T04:43:47.894Z,99.90
2022-09-30T04:46:16.525Z,99.90
2022-09-30T04:48:45.783Z,99.90
2022-09-30T04:51:14.046Z,99.90
2022-09-30T04:53:40.787Z,99.90
2022-09-30T04:56:08.002Z,99.90
2022-09-30T04:58:37.110Z,99.90
2022-09-30T05:01:15.681Z,99.90
2022-09-30T05:03:43.384Z,99.90
2022-09-30T05:06:11.140Z,99.90
2022-09-30T05:08:41.730Z,99.90
2022-09-30T05:11:14.569Z,99.90
2022-09-30T05:13:41.714Z,99.90
2022-09-30T05:16:08.881Z,99.90
2022-09-30T05:18:35.970Z,99.90
2022-09-30T05:21:03.629Z,99.90
2022-09-30T05:23:32.879Z,99.90
2022-09-30T05:26:00.911Z,99.90
2022-09-30T05:28:27.938Z,99.90
2022-09-30T05:31:02.678Z,99.90
2022-09-30T05:33:29.973Z,99.90
2022-09-30T05:36:02.488Z,99.90
2022-09-30T05:38:29.709Z,99.90
2022-09-30T05:40:56.483Z,99.90
2022-09-30T05:43:23.846Z,99.90
2022-09-30T05:45:57.548Z,99.90
2022-09-30T05:48:25.517Z,99.90
2022-09-30T05:51:01.553Z,99.90
2022-09-30T05:53:30.106Z,99.90
2022-09-30T05:55:56.791Z,99.90
2022-09-30T05:58:24.398Z,99.90
2022-09-30T06:00:51.132Z,99.90
2022-09-30T06:03:18.604Z,99.90
2022-09-30T06:05:45.954Z,99.90
2022-09-30T06:08:14.501Z,99.90
2022-09-30T06:10:42.959Z,99.90
2022-09-30T06:13:10.231Z,99.90
2022-09-30T06:15:38.910Z,99.90
2022-09-30T06:18:05.910Z,99.90
2022-09-30T06:20:32.867Z,99.90
2022-09-30T06:23:03.205Z,99.90
2022-09-30T06:25:30.675Z,99.90
2022-09-30T06:27:58.314Z,99.90
2022-09-30T06:30:25.367Z,99.90
2022-09-30T06:32:54.018Z,99.90
2022-09-30T06:35:22.127Z,99.90
2022-09-30T06:37:51.410Z,99.90
2022-09-30T06:40:18.331Z,99.90
2022-09-30T06:42:45.245Z,99.90
2022-09-30T06:45:21.373Z,99.90
2022-09-30T06:48:00.343Z,99.90
2022-09-30T06:50:28.238Z,99.90
2022-09-30T06:53:03.546Z,99.90
2022-09-30T06:55:30.648Z,99.90
2022-09-30T06:57:57.689Z,99.90
2022-09-30T07:00:25.421Z,99.90
2022-09-30T07:02:54.867Z,99.90
2022-09-30T07:05:21.744Z,99.90
2022-09-30T07:07:49.107Z,99.90
2022-09-30T07:10:15.950Z,99.90
2022-09-30T07:12:42.677Z,99.90
2022-09-30T07:15:13.594Z,99.90
2022-09-30T07:17:40.749Z,99.90
2022-09-30T07:20:08.286Z,99.90
2022-09-30T07:22:34.983Z,99.90
2022-09-30T07:25:04.090Z,99.90
2022-09-30T07:27:33.133Z,99.90
2022-09-30T07:32:47.502Z,99.90
2022-09-30T07:35:14.356Z,99.90
2022-09-30T07:37:40.998Z,99.90
2022-09-30T07:40:09.443Z,99.90
2022-09-30T07:42:40.118Z,99.90
2022-09-30T07:45:07.286Z,99.90
2022-09-30T07:47:34.016Z,99.90
2022-09-30T07:50:01.303Z,99.90
2022-09-30T07:52:27.974Z,99.90
2022-09-30T07:54:55.727Z,99.90
2022-09-30T07:57:22.353Z,99.90
2022-09-30T07:59:49.030Z,99.90
2022-09-30T08:02:18.003Z,99.90
2022-09-30T08:04:45.248Z,99.90
2022-09-30T08:07:14.140Z,99.90
2022-09-30T08:09:40.999Z,99.90
2022-09-30T08:12:08.174Z,99.90
2022-09-30T08:14:35.053Z,99.90
2022-09-30T08:17:01.982Z,99.90
2022-09-30T08:19:30.264Z,99.90
2022-09-30T08:21:57.852Z,99.90
2022-09-30T08:24:26.141Z,99.90
2022-09-30T08:26:53.314Z,99.90
2022-09-30T08:29:30.182Z,99.90
2022-09-30T08:32:07.108Z,99.90
2022-09-30T08:34:35.668Z,99.90
2022-09-30T08:37:07.737Z,99.90
2022-09-30T08:39:36.125Z,99.90
2022-09-30T08:42:38.094Z,99.90
2022-09-30T08:45:19.948Z,99.90
2022-09-30T08:48:07.543Z,99.90
2022-09-30T08:50:56.407Z,99.90
2022-09-30T08:53:30.206Z,99.90
2022-09-30T08:56:02.311Z,99.90
2022-09-30T08:58:36.793Z,99.90
2022-09-30T09:01:26.574Z,99.90
2022-09-30T09:03:54.144Z,99.90
2022-09-30T09:06:46.076Z,99.90
2022-09-30T09:09:32.673Z,99.90
2022-09-30T09:12:20.999Z,99.90
2022-09-30T09:15:08.095Z,99.90
2022-09-30T09:18:22.110Z,99.90
2022-09-30T09:20:59.884Z,99.90
2022-09-30T09:23:31.012Z,99.90
2022-09-30T09:25:58.398Z,99.90
2022-09-30T09:28:38.063Z,99.90
2022-09-30T09:31:05.271Z,99.90
2022-09-30T09:33:36.466Z,99.90
2022-09-30T09:36:20.788Z,99.90
2022-09-30T09:39:08.374Z,99.90
2022-09-30T09:41:58.734Z,99.90
2022-09-30T09:44:37.184Z,99.90
2022-09-30T09:47:17.361Z,99.90
2022-09-30T09:49:57.953Z,99.90
2022-09-30T09:52:37.000Z,99.90
2022-09-30T09:55:03.964Z,99.90
2022-09-30T09:57:33.750Z,99.90
2022-09-30T10:00:21.933Z,99.90
2022-09-30T10:03:21.002Z,99.90
2022-09-30T10:06:12.752Z,99.90
2022-09-30T10:08:52.691Z,97.90
2022-09-30T10:11:25.148Z,93.80
2022-09-30T10:13:57.948Z,90.50
2022-09-30T10:16:38.037Z,91.10
2022-09-30T10:19:18.462Z,92.10
2022-09-30T10:21:45.469Z,92.10
2022-09-30T10:24:26.628Z,91.00
2022-09-30T10:26:53.288Z,91.30
2022-09-30T10:29:29.669Z,92.10
2022-09-30T10:31:59.676Z,94.10
2022-09-30T10:34:32.022Z,95.60
2022-09-30T10:37:07.154Z,94.70
2022-09-30T10:39:37.733Z,95.10
2022-09-30T10:42:04.445Z,95.30
2022-09-30T10:44:31.291Z,94.40
2022-09-30T10:47:02.957Z,94.30
2022-09-30T10:49:53.390Z,93.10
2022-09-30T10:52:27.005Z,93.10
2022-09-30T10:55:21.171Z,92.90
2022-09-30T10:57:51.141Z,90.60
2022-09-30T11:00:19.535Z,90.80
2022-09-30T11:03:12.690Z,90.50
2022-09-30T11:05:45.314Z,87.80
2022-09-30T11:08:23.126Z,89.80
2022-09-30T11:11:11.359Z,87.10
2022-09-30T11:13:57.327Z,84.10
2022-09-30T11:16:45.697Z,89.10
2022-09-30T11:19:29.109Z,85.80
2022-09-30T11:21:57.103Z,82.70
2022-09-30T11:24:48.955Z,79.40
2022-09-30T11:27:52.550Z,81.30
2022-09-30T11:30:29.494Z,84.60
2022-09-30T11:33:12.650Z,84.40
2022-09-30T11:35:44.406Z,82.20
2022-09-30T11:38:38.569Z,82.20
2022-09-30T11:41:11.146Z,83.80
2022-09-30T11:43:54.145Z,81.80
2022-09-30T11:46:48.584Z,80.70
2022-09-30T11:49:41.442Z,80.70
2022-09-30T11:52:47.593Z,80.80
2022-09-30T11:55:35.185Z,81.40
2022-09-30T11:58:41.765Z,85.60
2022-09-30T12:01:11.986Z,83.10
2022-09-30T12:03:45.554Z,87.70
2022-09-30T12:06:38.957Z,86.30
2022-09-30T12:09:19.769Z,83.70
2022-09-30T12:11:56.068Z,82.70
2022-09-30T12:14:25.905Z,79.70
2022-09-30T12:16:53.276Z,76.30
2022-09-30T12:19:43.872Z,78.40
2022-09-30T12:22:14.209Z,77.40
2022-09-30T12:24:45.171Z,77.50
2022-09-30T12:27:21.377Z,77.70
2022-09-30T12:30:17.691Z,80.70
2022-09-30T12:33:11.486Z,77.90
2022-09-30T12:36:03.730Z,79.40
2022-09-30T12:38:30.337Z,78.10
2022-09-30T12:40:56.924Z,77.40
2022-09-30T12:43:27.617Z,77.30
2022-09-30T12:46:09.308Z,76.60
2022-09-30T12:48:44.550Z,79.50
2022-09-30T12:51:26.215Z,81.60
2022-09-30T12:53:59.966Z,82.10
2022-09-30T12:56:30.365Z,84.40
2022-09-30T12:58:57.974Z,87.30
2022-09-30T13:01:35.815Z,88.90
2022-09-30T13:04:02.461Z,90.00
2022-09-30T13:06:49.058Z,89.90
2022-09-30T13:09:59.365Z,90.10
2022-09-30T13:12:46.802Z,92.60
2022-09-30T13:15:28.471Z,91.80
2022-09-30T13:17:55.290Z,92.30
2022-09-30T13:20:53.008Z,92.80
2022-09-30T13:23:49.031Z,92.30
2022-09-30T13:26:28.076Z,93.00
2022-09-30T13:29:00.865Z,90.90
2022-09-30T13:31:30.039Z,90.70
2022-09-30T13:34:02.868Z,89.70
2022-09-30T13:36:57.062Z,90.60
2022-09-30T13:39:35.521Z,90.70
2022-09-30T13:42:15.223Z,91.30
2022-09-30T13:45:00.148Z,91.80
2022-09-30T13:47:40.400Z,91.30
2022-09-30T13:50:20.461Z,91.20
2022-09-30T13:52:53.736Z,91.80
2022-09-30T13:55:28.479Z,91.20
2022-09-30T13:58:02.913Z,89.40
2022-09-30T14:00:54.387Z,87.70
2022-09-30T14:03:38.596Z,89.30
2022-09-30T14:06:06.262Z,88.50
2022-09-30T14:09:07.223Z,84.70
2022-09-30T14:11:47.799Z,84.40
2022-09-30T14:14:17.575Z,82.80
2022-09-30T14:17:16.890Z,83.20
2022-09-30T14:20:22.927Z,84.30
2022-09-30T14:22:49.592Z,84.70
2022-09-30T14:25:19.167Z,87.30
2022-09-30T14:27:58.294Z,89.90
2022-09-30T14:30:26.900Z,91.10
2022-09-30T14:33:31.565Z,91.80
2022-09-30T14:36:02.113Z,91.40
2022-09-30T14:38:31.651Z,91.00
2022-09-30T14:41:07.922Z,91.30
2022-09-30T14:43:42.949Z,90.80
2022-09-30T14:46:34.475Z,89.20
2022-09-30T14:49:06.780Z,88.90
2022-09-30T14:51:43.574Z,89.00
2022-09-30T14:54:19.583Z,90.10
2022-09-30T14:56:47.310Z,86.90
2022-09-30T14:59:20.012Z,88.50
2022-09-30T15:01:55.488Z,89.20
2022-09-30T15:04:26.514Z,91.20
2022-09-30T15:06:53.773Z,92.20
2022-09-30T15:09:28.911Z,93.10
2022-09-30T15:11:55.742Z,93.20
2022-09-30T15:14:24.495Z,94.40
2022-09-30T15:16:54.370Z,95.30
2022-09-30T15:19:24.609Z,95.10
2022-09-30T15:21:53.834Z,95.50
2022-09-30T15:24:23.018Z,95.60
2022-09-30T15:26:51.270Z,95.70
2022-09-30T15:29:18.341Z,95.30
2022-09-30T15:31:54.326Z,95.80
2022-09-30T15:34:24.675Z,96.20
2022-09-30T15:37:11.684Z,96.80
2022-09-30T15:40:00.314Z,96.80
2022-09-30T15:43:01.246Z,97.20
2022-09-30T15:45:36.748Z,97.70
2022-09-30T15:48:22.531Z,98.30
2022-09-30T15:50:53.012Z,98.90
2022-09-30T15:53:36.166Z,99.00
2022-09-30T15:56:37.644Z,98.70
2022-09-30T15:59:12.277Z,98.90
2022-09-30T16:01:38.999Z,99.60
2022-09-30T16:04:14.216Z,99.90
2022-09-30T16:06:40.854Z,99.90
2022-09-30T16:09:24.840Z,99.90
2022-09-30T16:12:08.887Z,99.90
2022-09-30T16:14:49.969Z,99.90
2022-09-30T16:17:26.950Z,99.90
2022-09-30T16:19:59.033Z,99.90
2022-09-30T16:22:41.169Z,99.90
2022-09-30T16:25:10.997Z,99.90
2022-09-30T16:27:38.322Z,99.90
2022-09-30T16:30:07.910Z,99.90
2022-09-30T16:32:41.446Z,99.90
2022-09-30T16:35:25.010Z,99.90
2022-09-30T16:37:59.396Z,99.90
2022-09-30T16:40:28.744Z,99.90
2022-09-30T16:42:55.872Z,99.90
2022-09-30T16:45:23.014Z,99.90
2022-09-30T16:47:50.494Z,99.90
2022-09-30T16:50:22.797Z,99.90
2022-09-30T16:52:49.451Z,99.90
2022-09-30T16:57:47.962Z,99.90
2022-09-30T17:00:17.966Z,99.90
2022-09-30T17:02:46.831Z,99.90
2022-09-30T17:05:20.397Z,99.90
2022-09-30T17:07:50.498Z,99.90
2022-09-30T17:10:27.971Z,99.90
2022-09-30T17:13:02.208Z,99.90
2022-09-30T17:15:31.133Z,99.90
2022-09-30T17:17:58.795Z,99.90
2022-09-30T17:20:26.297Z,99.90
2022-09-30T17:22:53.062Z,99.90
2022-09-30T17:25:19.996Z,99.90
2022-09-30T17:27:52.640Z,99.90
2022-09-30T17:30:20.056Z,99.90
2022-09-30T17:32:47.394Z,99.90
2022-09-30T17:35:14.517Z,99.90
2022-09-30T17:37:45.303Z,99.90
2022-09-30T17:40:32.037Z,99.90
2022-09-30T17:43:07.965Z,99.90
2022-09-30T17:45:35.487Z,99.90
2022-09-30T17:48:02.417Z,99.90
2022-09-30T17:50:29.312Z,99.90
2022-09-30T17:52:56.346Z,99.90
2022-09-30T17:55:23.047Z,99.90
2022-09-30T17:57:50.738Z,99.90
2022-09-30T18:00:17.439Z,99.90
2022-09-30T18:02:44.688Z,99.90
2022-09-30T18:05:11.737Z,99.90
2022-09-30T18:07:38.377Z,99.90
2022-09-30T18:10:05.430Z,99.90
2022-09-30T18:12:34.249Z,99.90
2022-09-30T18:15:01.129Z,99.90
2022-09-30T18:17:28.565Z,99.90
2022-09-30T18:19:55.278Z,99.90
2022-09-30T18:22:21.930Z,99.90
2022-09-30T18:25:07.254Z,99.90
2022-09-30T18:27:33.963Z,99.90
2022-09-30T18:30:02.732Z,99.90
2022-09-30T18:32:29.638Z,99.90
2022-09-30T18:34:56.605Z,99.90
2022-09-30T18:37:24.259Z,99.90
2022-09-30T18:39:51.401Z,99.90
2022-09-30T18:42:20.047Z,99.90
2022-09-30T18:44:47.474Z,99.90
2022-09-30T18:47:17.391Z,99.90
2022-09-30T18:49:44.644Z,99.90
2022-09-30T18:52:11.400Z,99.90
2022-09-30T18:54:38.091Z,99.90
2022-09-30T18:57:05.157Z,99.90
2022-09-30T18:59:31.799Z,99.90
2022-09-30T19:01:59.651Z,99.90
2022-09-30T19:04:26.458Z,99.90
2022-09-30T19:06:53.233Z,99.90
2022-09-30T19:09:19.898Z,99.90
2022-09-30T19:11:47.988Z,99.90
2022-09-30T19:14:15.477Z,99.90
2022-09-30T19:16:43.439Z,99.90
2022-09-30T19:19:10.614Z,99.90
2022-09-30T19:21:38.565Z,99.90
2022-09-30T19:24:07.438Z,99.90
2022-09-30T19:26:36.576Z,99.90
2022-09-30T19:29:05.004Z,99.90
2022-09-30T19:31:35.944Z,99.90
2022-09-30T19:34:03.657Z,99.90
2022-09-30T19:36:40.063Z,99.90
2022-09-30T19:39:12.454Z,99.90
2022-09-30T19:41:39.417Z,99.90
2022-09-30T19:44:06.236Z,99.90
2022-09-30T19:46:33.220Z,99.90
2022-09-30T19:48:59.942Z,99.90
2022-09-30T19:51:29.175Z,99.90
2022-09-30T19:54:05.381Z,99.90
2022-09-30T19:56:34.128Z,99.90
2022-09-30T19:59:00.808Z,99.90
2022-09-30T20:01:28.709Z,99.90
2022-09-30T20:03:57.687Z,99.90
2022-09-30T20:06:24.437Z,99.90
2022-09-30T20:08:53.745Z,99.90
2022-09-30T20:11:22.351Z,99.90
2022-09-30T20:13:50.706Z,99.90
2022-09-30T20:16:17.460Z,99.90
2022-09-30T20:18:44.278Z,99.90
2022-09-30T20:21:14.010Z,99.90
2022-09-30T20:23:42.013Z,99.90
2022-09-30T20:26:13.162Z,99.90
2022-09-30T20:28:40.198Z,99.90
2022-09-30T20:31:12.104Z,99.90
2022-09-30T20:33:39.706Z,99.90
2022-09-30T20:36:08.583Z,99.90
2022-09-30T20:38:35.283Z,99.90
2022-09-30T20:41:03.156Z,99.90
2022-09-30T20:43:31.385Z,99.90
2022-09-30T20:46:01.763Z,99.90
2022-09-30T20:48:33.715Z,99.90
2022-09-30T20:51:04.381Z,99.90
2022-09-30T20:53:31.074Z,99.90
2022-09-30T20:56:00.939Z,99.90
2022-09-30T20:58:28.012Z,99.90
2022-09-30T21:01:04.272Z,99.90
2022-09-30T21:03:34.678Z,99.90
2022-09-30T21:06:01.919Z,99.90
2022-09-30T21:08:28.657Z,99.90
2022-09-30T21:10:56.363Z,99.90
2022-09-30T21:13:23.114Z,99.90
2022-09-30T21:16:08.338Z,99.90
2022-09-30T21:18:35.088Z,99.90
2022-09-30T21:21:03.079Z,99.90
2022-09-30T21:23:31.338Z,99.90
2022-09-30T21:26:04.221Z,99.90
2022-09-30T21:28:31.526Z,99.90
2022-09-30T21:30:59.152Z,99.90
2022-09-30T21:33:26.213Z,99.90
2022-09-30T21:36:00.544Z,99.90
2022-09-30T21:38:27.483Z,99.90
2022-09-30T21:41:01.997Z,99.90
2022-09-30T21:43:30.239Z,99.90
2022-09-30T21:46:01.762Z,99.90
2022-09-30T21:48:30.526Z,99.90
2022-09-30T21:50:57.694Z,99.90
2022-09-30T21:53:27.732Z,99.90
2022-09-30T21:55:55.837Z,99.90
2022-09-30T21:58:25.138Z,99.90
2022-09-30T22:00:52.917Z,99.90
2022-09-30T22:03:20.077Z,99.90
2022-09-30T22:05:54.506Z,99.90
2022-09-30T22:08:21.954Z,99.90
2022-09-30T22:10:50.752Z,99.90
2022-09-30T22:13:17.913Z,99.90
2022-09-30T22:15:45.987Z,99.90
2022-09-30T22:18:17.265Z,99.90
2022-09-30T22:20:48.030Z,99.90
2022-09-30T22:23:15.071Z,99.90
2022-09-30T22:25:41.890Z,99.90
2022-09-30T22:28:08.592Z,99.90
2022-09-30T22:30:35.383Z,99.90
2022-09-30T22:33:20.511Z,99.90
2022-09-30T22:36:16.481Z,99.90
2022-09-30T22:38:43.386Z,99.90
2022-09-30T22:41:10.038Z,99.90
2022-09-30T22:43:36.753Z,99.90
2022-09-30T22:46:05.459Z,99.90
2022-09-30T22:48:32.595Z,99.90
2022-09-30T22:51:00.039Z,99.90
2022-09-30T22:53:27.811Z,99.90
2022-09-30T22:55:55.252Z,99.90
2022-09-30T22:58:25.941Z,99.90
2022-09-30T23:00:58.464Z,99.90
2022-09-30T23:03:25.991Z,99.90
2022-09-30T23:05:58.954Z,99.90
2022-09-30T23:08:30.304Z,99.90
2022-09-30T23:10:57.487Z,99.90
2022-09-30T23:13:24.161Z,99.90
2022-09-30T23:15:57.650Z,99.90
2022-09-30T23:18:24.284Z,99.90
2022-09-30T23:21:02.031Z,99.90
2022-09-30T23:23:33.463Z,99.90
2022-09-30T23:26:18.173Z,99.90
2022-09-30T23:28:45.820Z,99.90
